createdAt,value
2018-05-07T00:03:29.811Z,99.00
2018-05-07T00:09:35.007Z,98.90
2018-05-07T00:15:39.440Z,98.90
2018-05-07T00:21:43.833Z,98.90
2018-05-07T00:27:48.224Z,99.00
2018-05-07T00:33:52.815Z,99.40
2018-05-07T00:39:57.358Z,99.40
2018-05-07T00:46:01.739Z,99.10
2018-05-07T00:52:06.150Z,99.50
2018-05-07T00:58:10.539Z,99.70
2018-05-07T01:04:15.071Z,99.80
2018-05-07T01:10:20.781Z,99.10
2018-05-07T01:16:25.204Z,99.10
2018-05-07T01:22:29.572Z,99.40
2018-05-07T01:28:33.939Z,99.70
2018-05-07T01:34:38.489Z,99.70
2018-05-07T01:40:42.860Z,99.40
2018-05-07T01:46:47.213Z,99.60
2018-05-07T01:52:52.523Z,99.70
2018-05-07T01:58:56.986Z,99.70
2018-05-07T02:05:01.439Z,99.90
2018-05-07T02:11:05.804Z,99.90
2018-05-07T02:17:10.176Z,99.90
2018-05-07T02:23:14.551Z,99.90
2018-05-07T02:29:18.923Z,99.90
2018-05-07T02:35:23.392Z,99.90
2018-05-07T02:41:27.755Z,99.90
2018-05-07T02:47:32.161Z,99.90
2018-05-07T02:53:36.534Z,99.90
2018-05-07T02:59:40.900Z,99.90
2018-05-07T03:05:45.270Z,99.90
2018-05-07T03:11:49.877Z,99.90
2018-05-07T03:17:54.289Z,99.90
2018-05-07T03:23:58.751Z,99.90
2018-05-07T03:30:03.115Z,99.90
2018-05-07T03:36:07.467Z,99.90
2018-05-07T03:42:11.866Z,99.90
2018-05-07T03:48:16.376Z,99.90
2018-05-07T03:54:21.070Z,99.90
2018-05-07T04:00:25.508Z,99.90
2018-05-07T04:06:29.950Z,99.90
2018-05-07T04:12:35.231Z,99.90
2018-05-07T04:25:28.895Z,99.90
2018-05-07T04:31:33.314Z,99.90
2018-05-07T04:37:37.715Z,99.90
2018-05-07T04:43:42.106Z,99.90
2018-05-07T04:49:47.269Z,99.90
2018-05-07T04:55:51.794Z,99.90
2018-05-07T05:01:56.955Z,99.90
2018-05-07T05:08:01.343Z,99.90
2018-05-07T05:14:05.803Z,99.90
2018-05-07T05:20:10.189Z,99.90
2018-05-07T05:26:14.667Z,99.90
2018-05-07T05:32:19.230Z,99.90
2018-05-07T05:38:24.629Z,99.90
2018-05-07T05:44:29.043Z,99.90
2018-05-07T05:50:34.206Z,99.90
2018-05-07T05:56:38.616Z,99.90
2018-05-07T06:02:43.866Z,99.90
2018-05-07T06:08:48.269Z,99.90
2018-05-07T06:14:53.585Z,99.90
2018-05-07T06:20:57.951Z,99.90
2018-05-07T06:27:03.135Z,99.90
2018-05-07T06:33:07.528Z,99.90
2018-05-07T06:39:12.467Z,99.10
2018-05-07T06:45:17.045Z,97.60
2018-05-07T06:51:21.710Z,97.20
2018-05-07T06:57:26.118Z,97.10
2018-05-07T07:03:30.528Z,95.40
2018-05-07T07:09:34.873Z,94.90
2018-05-07T07:15:39.251Z,94.70
2018-05-07T07:21:43.647Z,94.10
2018-05-07T07:27:48.015Z,92.20
2018-05-07T07:33:52.721Z,91.00
2018-05-07T07:39:57.058Z,89.80
2018-05-07T07:46:01.504Z,89.80
2018-05-07T07:52:05.914Z,86.00
2018-05-07T07:58:10.359Z,87.00
2018-05-07T08:04:14.818Z,83.30
2018-05-07T08:10:19.222Z,87.30
2018-05-07T08:16:23.707Z,85.80
2018-05-07T08:22:28.089Z,82.60
2018-05-07T08:28:32.490Z,83.70
2018-05-07T08:34:36.853Z,81.60
2018-05-07T08:40:41.219Z,80.40
2018-05-07T08:46:45.650Z,78.00
2018-05-07T08:52:50.918Z,71.30
2018-05-07T08:58:55.345Z,65.60
2018-05-07T09:04:59.810Z,70.80
2018-05-07T09:11:04.176Z,68.30
2018-05-07T09:17:08.591Z,67.50
2018-05-07T09:23:12.974Z,61.80
2018-05-07T09:29:17.344Z,59.70
2018-05-07T09:35:22.113Z,63.70
2018-05-07T09:41:26.629Z,57.30
2018-05-07T09:47:31.060Z,58.60
2018-05-07T09:53:35.418Z,58.30
2018-05-07T09:59:39.779Z,57.10
2018-05-07T10:05:45.028Z,52.60
2018-05-07T10:11:49.482Z,52.50
2018-05-07T10:17:53.961Z,53.60
2018-05-07T10:23:58.313Z,54.10
2018-05-07T10:30:02.663Z,50.20
2018-05-07T10:36:07.026Z,52.20
2018-05-07T10:42:11.382Z,47.80
2018-05-07T10:48:15.736Z,50.90
2018-05-07T10:54:20.308Z,46.70
2018-05-07T11:00:24.910Z,45.00
2018-05-07T11:06:29.334Z,48.90
2018-05-07T11:12:34.541Z,44.30
2018-05-07T11:18:38.893Z,44.20
2018-05-07T11:24:44.021Z,42.20
2018-05-07T11:30:48.490Z,42.10
2018-05-07T11:36:52.865Z,44.40
2018-05-07T11:42:57.238Z,40.00
2018-05-07T11:49:01.637Z,39.60
2018-05-07T11:55:05.983Z,41.00
2018-05-07T12:01:10.352Z,43.90
2018-05-07T12:07:15.540Z,39.20
2018-05-07T12:13:20.194Z,39.20
2018-05-07T12:19:24.678Z,37.50
2018-05-07T12:25:29.036Z,36.30
2018-05-07T12:31:33.496Z,35.20
2018-05-07T12:37:37.766Z,34.80
2018-05-07T12:43:42.229Z,33.80
2018-05-07T12:49:46.539Z,33.90
2018-05-07T12:55:51.320Z,32.40
2018-05-07T13:01:55.743Z,31.40
2018-05-07T13:08:00.092Z,35.60
2018-05-07T13:14:04.450Z,38.00
2018-05-07T13:20:08.803Z,30.00
2018-05-07T13:26:13.155Z,30.80
2018-05-07T13:32:17.503Z,32.30
2018-05-07T13:38:22.739Z,27.60
2018-05-07T13:44:27.145Z,27.60
2018-05-07T13:50:31.504Z,26.90
2018-05-07T13:56:35.854Z,28.80
2018-05-07T14:02:40.237Z,29.60
2018-05-07T14:08:44.595Z,29.50
2018-05-07T14:14:49.734Z,29.10
2018-05-07T14:20:54.310Z,29.10
2018-05-07T14:26:59.525Z,27.70
2018-05-07T14:33:03.883Z,27.70
2018-05-07T14:39:08.233Z,26.00
2018-05-07T14:45:12.634Z,25.60
2018-05-07T14:51:16.991Z,25.70
2018-05-07T14:57:21.804Z,25.90
2018-05-07T15:03:26.166Z,24.60
2018-05-07T15:09:30.530Z,23.00
2018-05-07T15:15:34.991Z,22.60
2018-05-07T15:21:39.362Z,21.90
2018-05-07T15:27:43.708Z,23.60
2018-05-07T15:33:48.052Z,23.90
2018-05-07T15:39:52.571Z,24.00
2018-05-07T15:45:56.961Z,23.60
2018-05-07T15:52:01.316Z,22.40
2018-05-07T15:58:05.681Z,21.70
2018-05-07T16:04:10.068Z,21.80
2018-05-07T16:10:14.425Z,22.50
2018-05-07T16:16:19.584Z,21.30
2018-05-07T16:22:24.021Z,21.20
2018-05-07T16:28:28.381Z,21.60
2018-05-07T16:34:32.756Z,21.80
2018-05-07T16:40:37.108Z,21.50
2018-05-07T16:46:41.506Z,21.60
2018-05-07T16:52:45.866Z,22.50
2018-05-07T16:58:50.382Z,24.00
2018-05-07T17:04:54.777Z,24.20
2018-05-07T17:10:59.144Z,24.10
2018-05-07T17:17:03.501Z,24.30
2018-05-07T17:23:07.886Z,23.60
2018-05-07T17:29:12.257Z,24.60
2018-05-07T17:35:16.698Z,25.80
2018-05-07T17:41:21.929Z,24.80
2018-05-07T17:47:43.999Z,24.70
2018-05-07T17:53:48.366Z,26.10
2018-05-07T17:59:53.068Z,26.70
2018-05-07T18:05:57.475Z,26.20
2018-05-07T18:12:01.910Z,27.40
2018-05-07T18:18:06.261Z,27.00
2018-05-07T18:24:11.382Z,30.00
2018-05-07T18:30:15.768Z,30.00
2018-05-07T18:36:20.545Z,31.50
2018-05-07T18:42:25.010Z,35.20
2018-05-07T18:48:29.369Z,39.50
2018-05-07T18:54:34.491Z,43.10
2018-05-07T19:00:38.879Z,43.00
2018-05-07T19:06:43.237Z,43.90
2018-05-07T19:12:47.689Z,45.40
2018-05-07T19:18:52.163Z,46.50
2018-05-07T19:24:57.362Z,48.10
2018-05-07T19:31:01.816Z,48.00
2018-05-07T19:37:06.173Z,49.20
2018-05-07T19:43:10.522Z,50.50
2018-05-07T19:49:14.968Z,52.60
2018-05-07T19:55:21.175Z,53.00
2018-05-07T20:01:25.623Z,53.70
2018-05-07T20:07:30.016Z,54.50
2018-05-07T20:13:34.383Z,55.50
2018-05-07T20:19:38.842Z,55.90
2018-05-07T20:25:43.216Z,57.10
2018-05-07T20:31:47.637Z,59.20
2018-05-07T20:37:52.092Z,61.40
2018-05-07T20:43:56.509Z,65.30
2018-05-07T20:50:00.910Z,67.70
2018-05-07T20:56:06.103Z,74.40
2018-05-07T21:02:10.466Z,74.40
2018-05-07T21:08:14.864Z,78.20
2018-05-07T21:14:19.288Z,81.00
2018-05-07T21:20:23.861Z,83.30
2018-05-07T21:26:29.025Z,84.60
2018-05-07T21:32:33.403Z,84.50
2018-05-07T21:38:37.776Z,85.10
2018-05-07T21:44:42.134Z,84.60
2018-05-07T21:50:46.536Z,87.60
2018-05-07T21:56:51.855Z,90.20
2018-05-07T22:02:56.297Z,89.60
2018-05-07T22:09:00.796Z,88.40
2018-05-07T22:15:05.190Z,90.00
2018-05-07T22:21:09.555Z,90.90
2018-05-07T22:27:14.692Z,91.40
2018-05-07T22:33:20.006Z,91.90
2018-05-07T22:39:25.321Z,92.50
2018-05-07T22:45:30.471Z,92.80
2018-05-07T22:51:34.861Z,92.50
2018-05-07T22:57:39.232Z,92.90
2018-05-07T23:03:44.425Z,93.30
2018-05-07T23:09:48.784Z,93.30
2018-05-07T23:15:53.319Z,94.00
2018-05-07T23:21:58.480Z,93.60
2018-05-07T23:28:02.867Z,93.60
2018-05-07T23:34:07.255Z,93.90
2018-05-07T23:40:11.616Z,94.00
2018-05-07T23:46:15.992Z,93.70
2018-05-07T23:52:20.681Z,93.90
2018-05-07T23:58:25.147Z,94.30
